Time;durP1;ratioP1;P1;durP2;ratioP2;P2;SDS_P1;SDS_P2;PMS_P1;PMS_P2;Temp;Humidity;BMP_temperature;BMP_pressure;BME280_temperature;BME280_humidity;BME280_pressure;Samples;Min_cycle;Max_cycle;Signal;HPM_P1;HPM_P2
2022/10/28 00:02:14;;;;;;;9.13;2.22;;;;;;;11.82;58.72;95156.56;5045206;28;20020;-81
2022/10/28 00:04:39;;;;;;;6.70;2.90;;;;;;;11.84;58.67;95146.38;5062883;28;20021;-81
2022/10/28 00:07:05;;;;;;;3.67;1.90;;;;;;;11.79;58.91;95151.00;5062662;28;20311;-81
2022/10/28 00:09:30;;;;;;;7.00;2.42;;;;;;;11.81;58.66;95160.31;5062703;28;20017;-82
2022/10/28 00:11:56;;;;;;;12.15;2.83;;;;;;;11.81;58.62;95152.28;5062751;28;20088;-82
2022/10/28 00:14:21;;;;;;;6.82;3.03;;;;;;;11.78;59.03;95154.75;5063158;28;20013;-82
2022/10/28 00:16:47;;;;;;;4.95;2.15;;;;;;;11.76;59.09;95146.22;5062573;28;20040;-81
2022/10/28 00:19:12;;;;;;;5.10;2.50;;;;;;;11.77;59.00;95155.84;5062567;28;20044;-82
2022/10/28 00:21:40;;;;;;;10.38;2.92;;;;;;;11.75;59.06;95150.78;5062595;28;20027;-82
2022/10/28 00:24:06;;;;;;;6.07;2.88;;;;;;;11.75;59.05;95148.09;5062318;28;20021;-82
2022/10/28 00:26:35;;;;;;;9.95;3.03;;;;;;;11.72;59.13;95148.69;5062562;28;20017;-82
2022/10/28 00:29:04;;;;;;;6.68;3.10;;;;;;;11.72;59.08;95150.56;5062493;28;20078;-82
2022/10/28 00:31:31;;;;;;;7.20;2.83;;;;;;;11.71;59.30;95147.09;5062438;28;20059;-82
2022/10/28 00:34:01;;;;;;;12.20;2.95;;;;;;;11.67;59.37;95148.75;5062460;28;20024;-82
2022/10/28 00:36:30;;;;;;;7.28;3.25;;;;;;;11.62;59.60;95143.47;5062161;28;20036;-82
2022/10/28 00:38:57;;;;;;;7.95;3.08;;;;;;;11.57;59.77;95143.56;5062285;28;20028;-84
2022/10/28 00:41:27;;;;;;;7.55;2.92;;;;;;;11.58;59.79;95148.63;5062663;28;20021;-84
2022/10/28 00:44:00;;;;;;;6.63;3.33;;;;;;;11.57;59.97;95143.56;5062563;28;20053;-84
2022/10/28 00:46:43;;;;;;;6.78;3.00;;;;;;;11.54;60.05;95141.44;5062264;28;20341;-84
2022/10/28 00:49:15;;;;;;;5.28;2.50;;;;;;;11.47;60.24;95136.47;5065415;28;20319;-84
2022/10/28 00:51:42;;;;;;;6.88;3.53;;;;;;;11.39;60.46;95140.56;5066634;28;20103;-84
2022/10/28 00:54:09;;;;;;;8.60;3.22;;;;;;;11.39;60.54;95143.22;5066258;28;20032;-84
2022/10/28 00:56:38;;;;;;;9.52;3.38;;;;;;;11.28;61.15;95147.13;5066391;28;20048;-84
2022/10/28 00:59:10;;;;;;;13.88;3.13;;;;;;;11.28;60.82;95146.34;5066400;28;20024;-84
2022/10/28 01:01:36;;;;;;;7.93;3.20;;;;;;;11.20;61.21;95139.75;5066297;28;20031;-84
2022/10/28 01:04:02;;;;;;;5.78;3.00;;;;;;;11.21;61.45;95144.00;5066039;28;20021;-82
2022/10/28 01:06:28;;;;;;;6.18;2.47;;;;;;;11.19;61.48;95138.97;5066273;28;20048;-83
2022/10/28 01:08:53;;;;;;;5.43;2.92;;;;;;;11.16;61.75;95146.72;5066189;28;20025;-82
2022/10/28 01:11:58;;;;;;;6.03;3.22;;;;;;;11.12;61.92;95143.03;5066012;28;20028;-83
2022/10/28 01:14:45;;;;;;;10.45;3.42;;;;;;;10.95;62.54;95146.16;5048531;28;20028;-83
2022/10/28 01:17:16;;;;;;;8.18;3.72;;;;;;;10.92;62.56;95147.50;5048157;28;20029;-83
2022/10/28 01:20:06;;;;;;;10.55;4.00;;;;;;;10.91;62.50;95147.78;5066003;28;20051;-82
2022/10/28 01:23:05;;;;;;;9.82;2.90;;;;;;;10.92;62.56;95144.84;5065742;28;20314;-81
2022/10/28 01:25:57;;;;;;;13.48;3.08;;;;;;;10.93;62.67;95143.78;5066074;28;20195;-82
2022/10/28 01:28:54;;;;;;;9.32;3.15;;;;;;;10.88;62.73;95143.03;5066081;28;20025;-81
2022/10/28 01:31:35;;;;;;;4.97;2.83;;;;;;;10.83;62.83;95136.69;5065746;28;20025;-81
2022/10/28 01:34:09;;;;;;;5.82;3.03;;;;;;;10.85;62.69;95144.41;5065731;28;20027;-82
2022/10/28 01:36:56;;;;;;;11.02;3.30;;;;;;;10.87;62.67;95146.78;5065559;28;20044;-82
2022/10/28 01:39:36;;;;;;;8.80;3.25;;;;;;;10.86;62.60;95142.53;5065802;28;20021;-82
2022/10/28 01:42:20;;;;;;;8.82;3.13;;;;;;;10.88;62.54;95145.72;5065542;28;20020;-82
2022/10/28 01:45:05;;;;;;;6.10;3.28;;;;;;;10.85;62.71;95149.75;5064270;28;20313;-83
2022/10/28 01:48:01;;;;;;;6.93;2.97;;;;;;;10.82;62.77;95142.28;5065431;28;20025;-83
2022/10/28 01:51:11;;;;;;;6.18;2.75;;;;;;;10.78;62.40;95150.06;5060578;28;20235;-83
2022/10/28 01:53:40;;;;;;;6.45;3.10;;;;;;;10.77;62.36;95143.16;5004091;28;20069;-83
2022/10/28 01:56:11;;;;;;;7.38;2.65;;;;;;;10.77;62.58;95140.47;5057719;28;20086;-82
2022/10/28 01:58:38;;;;;;;6.75;3.08;;;;;;;10.80;62.55;95157.78;5065229;28;20345;-83
2022/10/28 02:01:06;;;;;;;5.30;2.60;;;;;;;10.81;62.32;95152.16;5064466;28;20047;-83
2022/10/28 02:03:31;;;;;;;8.00;2.95;;;;;;;10.83;62.02;95154.56;5065135;28;20028;-83
2022/10/28 02:06:00;;;;;;;6.35;2.65;;;;;;;10.75;61.81;95153.31;5065108;28;20055;-83
2022/10/28 02:08:48;;;;;;;7.78;2.80;;;;;;;10.68;62.53;95147.50;5064972;28;20051;-83
2022/10/28 02:11:46;;;;;;;8.02;3.30;;;;;;;10.66;62.72;95151.53;5065164;28;20227;-83
2022/10/28 02:14:23;;;;;;;9.30;2.53;;;;;;;10.69;62.56;95148.31;5009742;28;20043;-83
2022/10/28 02:16:55;;;;;;;8.63;2.50;;;;;;;10.71;62.43;95154.16;5063832;28;20030;-83
2022/10/28 02:20:16;;;;;;;6.95;2.85;;;;;;;10.64;62.68;95143.78;5065110;28;20073;-82
2022/10/28 02:22:50;;;;;;;4.43;2.17;;;;;;;10.61;62.65;95144.38;5041297;28;20025;-83
2022/10/28 02:25:20;;;;;;;7.88;2.92;;;;;;;10.60;62.61;95143.59;5064686;28;20020;-83
2022/10/28 02:28:01;;;;;;;6.90;2.33;;;;;;;10.55;62.65;95142.84;5064665;28;20047;-83
2022/10/28 02:30:37;;;;;;;7.25;3.67;;;;;;;10.49;62.67;95144.75;5064667;28;20028;-83
2022/10/28 02:33:08;;;;;;;7.70;3.58;;;;;;;10.49;62.70;95158.06;5064670;28;20021;-83
2022/10/28 02:35:42;;;;;;;9.15;3.65;;;;;;;10.47;62.92;95154.09;5064427;28;20040;-83
2022/10/28 02:38:17;;;;;;;7.82;3.42;;;;;;;10.38;62.85;95146.72;5064583;28;20025;-83
2022/10/28 02:40:47;;;;;;;8.68;3.25;;;;;;;10.38;63.08;95151.22;5064675;28;20088;-83
2022/10/28 02:43:16;;;;;;;7.15;3.22;;;;;;;10.32;63.52;95160.34;5064310;28;20025;-84
2022/10/28 02:45:45;;;;;;;7.35;3.13;;;;;;;10.26;63.57;95162.25;5064429;28;20024;-84
2022/10/28 02:48:22;;;;;;;6.45;2.58;;;;;;;10.22;63.69;95164.66;5064189;28;20127;-83
2022/10/28 02:50:54;;;;;;;6.13;2.97;;;;;;;10.17;63.74;95166.56;5064297;28;20342;-83
2022/10/28 02:53:21;;;;;;;;;;;;;;;10.13;64.28;95168.19;5064755;28;20017;-83
2022/10/28 02:55:53;;;;;;;5.03;2.92;;;;;;;10.08;64.45;95170.91;5046432;28;19911;-83
2022/10/28 02:58:19;;;;;;;8.80;3.13;;;;;;;10.02;64.76;95159.47;5046140;28;20112;-83
2022/10/28 03:00:45;;;;;;;4.45;2.40;;;;;;;9.96;64.86;95155.25;5063995;28;20036;-84
2022/10/28 03:03:11;;;;;;;6.57;3.28;;;;;;;9.90;65.05;95162.50;5064020;28;20032;-84
2022/10/28 03:05:37;;;;;;;6.18;3.08;;;;;;;9.87;65.25;95159.56;5064029;28;20028;-84
2022/10/28 03:08:02;;;;;;;6.80;3.30;;;;;;;9.81;65.37;95153.47;5063948;28;20090;-84
2022/10/28 03:10:28;;;;;;;6.78;3.70;;;;;;;9.81;65.47;95153.47;5063876;28;20028;-84
2022/10/28 03:12:53;;;;;;;7.10;3.13;;;;;;;9.77;65.91;95155.91;5063040;28;20009;-84
2022/10/28 03:15:19;;;;;;;6.03;3.30;;;;;;;9.76;65.76;95145.53;5064020;28;20023;-82
2022/10/28 03:17:44;;;;;;;7.18;3.10;;;;;;;9.74;65.47;95145.81;5063771;28;20056;-82
2022/10/28 03:20:10;;;;;;;5.07;2.30;;;;;;;9.72;65.39;95150.59;5063617;28;20024;-84
2022/10/28 03:22:36;;;;;;;8.15;3.30;;;;;;;9.67;65.60;95157.81;5063700;28;20025;-84
2022/10/28 03:25:01;;;;;;;12.38;3.45;;;;;;;9.62;65.86;95148.00;5063723;28;20021;-83
2022/10/28 03:27:27;;;;;;;9.27;4.45;;;;;;;9.61;66.02;95154.41;5063462;28;20305;-83
2022/10/28 03:29:52;;;;;;;10.73;4.35;;;;;;;9.56;66.05;95157.88;5063773;28;20017;-83
2022/10/28 03:32:17;;;;;;;11.02;4.07;;;;;;;9.55;66.23;95160.84;5063184;28;20112;-84
2022/10/28 03:34:43;;;;;;;7.32;3.92;;;;;;;9.48;66.40;95158.44;5063454;28;20066;-82
2022/10/28 03:37:09;;;;;;;6.10;2.97;;;;;;;9.44;66.51;95158.22;5063372;28;20267;-82
2022/10/28 03:39:34;;;;;;;12.07;3.42;;;;;;;9.42;66.79;95162.22;5063416;28;20016;-82
2022/10/28 03:42:00;;;;;;;7.60;3.85;;;;;;;9.42;67.03;95157.72;5063153;28;20039;-82
2022/10/28 03:44:25;;;;;;;7.78;3.90;;;;;;;9.42;67.30;95163.03;5063167;28;20319;-82
2022/10/28 03:46:51;;;;;;;7.78;3.85;;;;;;;9.36;67.21;95158.81;5063217;28;20032;-82
2022/10/28 03:49:16;;;;;;;6.78;3.17;;;;;;;9.38;67.12;95161.16;5063256;28;20032;-82
2022/10/28 03:51:42;;;;;;;9.57;4.20;;;;;;;9.35;67.21;95148.41;5063110;28;20346;-82
2022/10/28 03:54:07;;;;;;;13.00;3.65;;;;;;;9.29;67.24;95158.28;5062851;28;20039;-82
2022/10/28 03:56:32;;;;;;;11.02;3.60;;;;;;;9.29;67.33;95155.63;5062845;28;20021;-82
2022/10/28 03:58:58;;;;;;;17.08;3.95;;;;;;;9.29;67.47;95160.94;5063142;28;20036;-82
2022/10/28 04:01:23;;;;;;;7.18;4.43;;;;;;;9.27;67.46;95149.00;5063116;28;20017;-82
2022/10/28 04:03:49;;;;;;;12.80;4.85;;;;;;;9.22;67.70;95158.59;5062661;28;20375;-82
2022/10/28 04:06:15;;;;;;;9.85;4.63;;;;;;;9.20;67.76;95159.94;5062974;28;20033;-82
2022/10/28 04:08:41;;;;;;;9.77;4.13;;;;;;;9.16;67.86;95158.84;5062919;28;20045;-82
2022/10/28 04:11:06;;;;;;;11.25;4.75;;;;;;;9.13;67.78;95159.41;5062898;28;20315;-82
2022/10/28 04:13:32;;;;;;;9.32;4.68;;;;;;;9.12;67.98;95163.13;5062800;28;20303;-82
2022/10/28 04:15:57;;;;;;;18.50;7.28;;;;;;;9.13;67.91;95176.16;5062603;28;20031;-81
2022/10/28 04:18:23;;;;;;;17.67;6.38;;;;;;;9.14;67.77;95167.13;5062792;28;20025;-82
2022/10/28 04:20:48;;;;;;;16.02;6.70;;;;;;;9.13;67.91;95175.38;5062748;28;20092;-82
2022/10/28 04:23:17;;;;;;;15.95;7.45;;;;;;;9.11;68.00;95178.28;5062149;28;20052;-81
2022/10/28 04:25:42;;;;;;;16.13;6.43;;;;;;;9.08;68.40;95165.56;5062492;28;20060;-81
2022/10/28 04:28:08;;;;;;;10.38;5.40;;;;;;;9.06;68.52;95174.84;5044639;28;20025;-81
2022/10/28 04:30:33;;;;;;;13.90;7.60;;;;;;;9.02;68.65;95169.28;5062457;28;20052;-82
2022/10/28 04:32:58;;;;;;;15.80;6.85;;;;;;;8.98;68.60;95174.34;5062681;28;20021;-83
2022/10/28 04:35:24;;;;;;;16.30;6.72;;;;;;;8.98;68.53;95168.25;5062447;28;20091;-83
2022/10/28 04:37:50;;;;;;;12.10;6.20;;;;;;;8.95;68.84;95169.56;5062321;28;20024;-82
2022/10/28 04:40:15;;;;;;;14.50;5.32;;;;;;;8.92;68.74;95161.34;5062303;28;20270;-82
2022/10/28 04:42:41;;;;;;;19.85;6.40;;;;;;;8.92;68.55;95162.13;5062323;28;20021;-81
2022/10/28 04:45:07;;;;;;;19.08;6.22;;;;;;;8.90;68.49;95166.94;5062228;28;20074;-82
2022/10/28 04:47:32;;;;;;;13.45;5.53;;;;;;;8.90;68.53;95172.25;5062198;28;20021;-83
2022/10/28 04:49:58;;;;;;;19.60;4.68;;;;;;;8.87;68.40;95164.78;5062237;28;20020;-83
2022/10/28 04:52:23;;;;;;;16.13;5.60;;;;;;;8.81;68.71;95169.34;5062299;28;20017;-83
2022/10/28 04:54:49;;;;;;;12.52;4.65;;;;;;;8.77;68.68;95170.97;5062260;28;20017;-83
2022/10/28 04:57:14;;;;;;;12.40;5.85;;;;;;;8.76;69.35;95160.59;5062058;28;20020;-82
2022/10/28 04:59:40;;;;;;;13.27;5.70;;;;;;;8.77;69.51;95162.16;5062191;28;20063;-82
2022/10/28 05:02:05;;;;;;;11.77;5.72;;;;;;;8.79;69.44;95171.47;5062207;28;20025;-82
2022/10/28 05:04:31;;;;;;;14.18;5.97;;;;;;;8.78;69.45;95163.78;5062115;28;20029;-83
2022/10/28 05:06:56;;;;;;;16.05;5.90;;;;;;;8.79;69.43;95170.66;5062121;28;20025;-82
2022/10/28 05:09:22;;;;;;;18.08;6.47;;;;;;;8.79;69.53;95170.66;5062149;28;20025;-82
2022/10/28 05:11:47;;;;;;;16.55;6.70;;;;;;;8.77;69.40;95167.47;5062091;28;20093;-82
2022/10/28 05:14:13;;;;;;;18.38;5.30;;;;;;;8.74;69.39;95166.16;5062189;28;20016;-82
2022/10/28 05:16:38;;;;;;;18.75;5.43;;;;;;;8.76;69.35;95176.53;5062031;28;20024;-83
2022/10/28 05:19:04;;;;;;;10.57;5.07;;;;;;;8.78;69.46;95169.88;5062023;28;20059;-83
2022/10/28 05:21:29;;;;;;;17.70;5.00;;;;;;;8.78;69.46;95177.06;5061734;28;20049;-83
2022/10/28 05:23:54;;;;;;;13.93;5.38;;;;;;;8.81;69.68;95176.50;5062044;28;20108;-83
2022/10/28 05:26:20;;;;;;;12.05;5.47;;;;;;;8.84;69.92;95178.66;5061766;28;20021;-84
2022/10/28 05:28:49;;;;;;;14.60;4.75;;;;;;;8.86;69.92;95181.03;5061579;28;20323;-82
2022/10/28 05:31:15;;;;;;;9.30;4.07;;;;;;;8.88;69.99;95184.22;5061636;28;20378;-83
2022/10/28 05:33:40;;;;;;;9.27;4.72;;;;;;;8.96;69.82;95189.78;5061641;28;20040;-83
2022/10/28 05:36:06;;;;;;;15.63;5.38;;;;;;;9.03;69.75;95192.94;5064592;28;20315;-82
2022/10/28 05:38:32;;;;;;;9.63;5.40;;;;;;;8.99;69.55;95186.56;5065470;28;20024;-81
2022/10/28 05:40:57;;;;;;;21.50;6.25;;;;;;;9.06;69.68;95196.13;5047438;28;20307;-82
2022/10/28 05:43:22;;;;;;;17.35;6.38;;;;;;;9.11;69.42;95190.81;5047549;28;20020;-83
2022/10/28 05:45:53;;;;;;;23.92;6.97;;;;;;;9.17;69.16;95190.50;5065528;28;20028;-83
2022/10/28 05:48:18;;;;;;;12.90;6.35;;;;;;;9.22;69.15;95206.47;5065250;28;20092;-83
2022/10/28 05:50:44;;;;;;;19.40;6.43;;;;;;;9.28;68.71;95198.47;5065283;28;20028;-82
2022/10/28 05:53:09;;;;;;;33.10;6.97;;;;;;;9.24;69.00;95192.91;5064865;28;20036;-82
2022/10/28 05:55:35;;;;;;;22.27;6.82;;;;;;;9.28;69.08;95201.94;5065365;28;20020;-82
2022/10/28 05:58:01;;;;;;;28.88;7.55;;;;;;;9.29;68.99;95200.84;5065247;28;20028;-84
2022/10/28 06:00:27;;;;;;;23.80;7.32;;;;;;;9.36;68.69;95206.69;5065331;28;20020;-84
2022/10/28 06:03:08;;;;;;;24.90;7.93;;;;;;;9.35;68.81;95204.31;5065247;28;20048;-83
2022/10/28 06:05:34;;;;;;;18.77;7.15;;;;;;;9.38;69.02;95212.53;5065166;28;20337;-82
2022/10/28 06:07:59;;;;;;;25.13;7.50;;;;;;;9.38;68.80;95211.72;5065002;28;20086;-84
2022/10/28 06:10:24;;;;;;;24.40;7.65;;;;;;;9.42;68.76;95213.59;5065223;28;20028;-83
2022/10/28 06:12:50;;;;;;;26.10;8.13;;;;;;;9.47;68.76;95217.31;5065270;28;20242;-83
2022/10/28 06:15:15;;;;;;;22.38;10.75;;;;;;;9.50;68.56;95214.06;5047120;28;20086;-83
2022/10/28 06:17:41;;;;;;;30.05;8.98;;;;;;;9.50;68.65;95230.03;5064856;28;20048;-83
2022/10/28 06:20:07;;;;;;;20.75;8.50;;;;;;;9.56;68.43;95229.75;5064788;28;20048;-82
2022/10/28 06:22:32;;;;;;;20.58;8.13;;;;;;;9.58;68.17;95235.59;5046881;28;20029;-82
2022/10/28 06:24:58;;;;;;;20.90;7.82;;;;;;;9.59;67.88;95245.19;5064277;28;20036;-76
2022/10/28 06:27:23;;;;;;;14.40;6.50;;;;;;;9.64;68.07;95244.38;5064765;28;20025;-85
2022/10/28 06:29:49;;;;;;;20.58;5.95;;;;;;;9.68;67.76;95241.97;5064726;28;20033;-85
2022/10/28 06:32:14;;;;;;;12.18;5.78;;;;;;;9.78;67.04;95244.56;5064757;28;20057;-88
2022/10/28 06:34:42;;;;;;;9.60;5.53;;;;;;;9.84;67.67;95240.81;5065602;28;20250;-90
2022/10/28 06:37:09;;;;;;;19.92;6.50;;;;;;;9.94;67.67;95245.28;5065872;28;20020;-90
2022/10/28 06:39:36;;;;;;;15.13;6.15;;;;;;;9.99;67.02;95235.41;5066056;28;20032;-90
2022/10/28 06:42:02;;;;;;;14.68;6.45;;;;;;;10.07;66.88;95235.91;5065583;28;20067;-89
2022/10/28 06:44:27;;;;;;;21.50;7.68;;;;;;;10.14;66.54;95237.19;5065492;28;20095;-87
2022/10/28 06:46:54;;;;;;;11.63;6.40;;;;;;;10.23;66.30;95234.72;5063601;28;20041;-83
2022/10/28 06:49:19;;;;;;;18.10;6.05;;;;;;;10.34;65.83;95236.28;5065881;28;20031;-85
2022/10/28 06:51:56;;;;;;;14.07;6.15;;;;;;;10.39;65.78;95232.78;5064442;28;20307;-88
2022/10/28 06:54:22;;;;;;;15.15;6.47;;;;;;;10.48;65.51;95236.44;5064897;28;20013;-88
2022/10/28 06:56:47;;;;;;;17.02;6.13;;;;;;;10.57;65.42;95237.44;5065879;28;20104;-87
2022/10/28 06:59:16;;;;;;;17.42;7.25;;;;;;;10.65;65.21;95228.06;5049039;28;20200;-88
2022/10/28 07:01:41;;;;;;;25.42;7.50;;;;;;;10.71;64.74;95228.81;5064895;28;20096;-89
2022/10/28 07:04:12;;;;;;;19.50;6.38;;;;;;;10.77;64.78;95238.38;5064556;28;20020;-87
2022/10/28 07:06:38;;;;;;;16.70;6.80;;;;;;;10.79;65.70;95236.22;5065031;28;20322;-88
2022/10/28 07:09:06;;;;;;;32.80;7.93;;;;;;;10.86;64.89;95235.88;5066359;28;20016;-88
2022/10/28 07:11:32;;;;;;;14.85;7.30;;;;;;;10.85;64.49;95240.44;5066206;28;20040;-88
2022/10/28 07:14:00;;;;;;;22.02;7.95;;;;;;;10.84;64.71;95236.16;5066708;28;20021;-88
2022/10/28 07:17:12;;;;;;;22.67;7.82;;;;;;;10.81;64.42;95242.06;5066140;28;20021;-89
2022/10/28 07:19:40;;;;;;;24.80;6.97;;;;;;;10.87;64.29;95250.78;5051757;28;20036;-88
2022/10/28 07:22:06;;;;;;;17.23;7.45;;;;;;;10.90;64.18;95242.25;5064780;28;20083;-90
2022/10/28 07:24:31;;;;;;;15.88;7.05;;;;;;;10.94;63.85;95249.41;5046402;28;20029;-87
2022/10/28 07:26:57;;;;;;;15.05;7.35;;;;;;;10.96;64.04;95241.91;5046448;28;20021;-88
2022/10/28 07:29:25;;;;;;;26.52;6.75;;;;;;;11.05;63.96;95239.41;5064349;28;20067;-87
2022/10/28 07:31:54;;;;;;;21.77;7.15;;;;;;;11.15;63.73;95239.31;5047145;28;20020;-84
2022/10/28 07:34:20;;;;;;;23.65;7.53;;;;;;;11.22;63.26;95239.00;5064176;28;20021;-88
2022/10/28 07:36:50;;;;;;;17.15;8.15;;;;;;;11.27;62.62;95236.25;5063846;28;20115;-86
2022/10/28 07:39:19;;;;;;;18.55;7.97;;;;;;;11.31;62.67;95241.84;5063548;28;20334;-87
2022/10/28 07:41:47;;;;;;;19.98;7.80;;;;;;;11.43;62.07;95237.69;5063944;28;20028;-85
2022/10/28 07:44:13;;;;;;;17.65;8.20;;;;;;;11.47;61.98;95240.59;5065228;28;20040;-80
2022/10/28 07:46:39;;;;;;;25.48;7.65;;;;;;;11.56;62.15;95238.06;5063675;28;20031;-81
2022/10/28 07:49:04;;;;;;;25.73;8.13;;;;;;;11.65;62.04;95239.06;5063195;28;20024;-82
2022/10/28 07:51:30;;;;;;;22.50;7.60;;;;;;;11.75;61.17;95249.59;5063430;28;20032;-82
2022/10/28 07:53:56;;;;;;;23.75;7.75;;;;;;;11.83;60.84;95235.63;5063223;28;20020;-83
2022/10/28 07:56:21;;;;;;;25.83;8.05;;;;;;;11.89;60.84;95232.94;5063269;28;20041;-82
2022/10/28 07:58:47;;;;;;;18.13;8.73;;;;;;;11.97;61.01;95232.28;5063033;28;20349;-83
2022/10/28 08:01:15;;;;;;;31.10;9.95;;;;;;;12.06;60.65;95230.53;5063492;28;20021;-81
2022/10/28 08:03:40;;;;;;;22.05;9.02;;;;;;;12.16;60.32;95222.38;5062952;28;20093;-88
2022/10/28 08:06:09;;;;;;;21.27;8.20;;;;;;;12.17;59.95;95229.31;5063135;28;20017;-84
2022/10/28 08:08:34;;;;;;;27.58;9.10;;;;;;;12.30;59.28;95229.69;5062981;28;20025;-81
2022/10/28 08:11:08;;;;;;;23.02;7.32;;;;;;;12.36;59.07;95234.66;5063091;28;20319;-81
2022/10/28 08:13:33;;;;;;;30.13;9.07;;;;;;;12.37;59.00;95227.41;5062828;28;20238;-79
2022/10/28 08:15:59;;;;;;;17.83;8.50;;;;;;;12.42;59.37;95228.16;5063088;28;20025;-81
2022/10/28 08:18:24;;;;;;;14.77;7.53;;;;;;;12.49;59.28;95230.44;5063195;28;20096;-83
2022/10/28 08:20:50;;;;;;;21.35;7.32;;;;;;;12.63;58.91;95235.84;5063390;28;20433;-79
2022/10/28 08:23:15;;;;;;;21.30;8.15;;;;;;;12.73;58.43;95233.00;5063621;28;20080;-86
2022/10/28 08:25:48;;;;;;;33.88;8.95;;;;;;;12.80;58.40;95244.13;5044964;28;20023;-79
2022/10/28 08:28:14;;;;;;;19.88;9.25;;;;;;;12.94;57.14;95243.38;5062898;28;20065;-81
2022/10/28 08:30:39;;;;;;;32.20;8.85;;;;;;;12.87;57.40;95232.25;5062577;28;20254;-82
2022/10/28 08:33:04;;;;;;;30.92;8.55;;;;;;;12.97;56.95;95242.78;5062606;28;20036;-83
2022/10/28 08:35:30;;;;;;;24.33;7.95;;;;;;;13.04;57.31;95238.63;5062494;28;20171;-81
2022/10/28 08:37:55;;;;;;;28.45;8.40;;;;;;;13.16;56.88;95229.34;5062589;28;20024;-80
2022/10/28 08:40:31;;;;;;;18.65;9.13;;;;;;;13.28;56.19;95240.34;5062788;28;20029;-79
2022/10/28 08:43:07;;;;;;;36.25;8.57;;;;;;;13.37;56.05;95241.31;5063134;28;20315;-93
2022/10/28 08:45:49;;;;;;;33.78;8.43;;;;;;;13.44;55.67;95230.19;5063501;28;20028;-85
2022/10/28 08:48:32;;;;;;;21.55;9.93;;;;;;;13.51;55.43;95240.50;5062806;28;20020;-81
2022/10/28 08:51:06;;;;;;;19.85;7.80;;;;;;;13.57;55.92;95233.94;5045483;28;20029;-90
2022/10/28 08:54:01;;;;;;;20.38;8.05;;;;;;;13.72;55.85;95225.63;5063575;28;20036;-83
2022/10/28 08:56:34;;;;;;;25.73;8.43;;;;;;;13.88;55.41;95225.28;5053118;28;20048;-80
2022/10/28 08:59:03;;;;;;;22.08;7.38;;;;;;;13.98;54.47;95227.75;5063412;28;20040;-87
2022/10/28 09:01:58;;;;;;;13.60;5.88;;;;;;;14.12;54.38;95223.16;5063498;28;20104;-84
2022/10/28 09:04:34;;;;;;;14.43;5.50;;;;;;;14.27;54.25;95221.22;5037028;28;20049;-86
2022/10/28 09:07:01;;;;;;;22.27;4.93;;;;;;;14.36;53.43;95219.44;5062697;28;20127;-82
2022/10/28 09:09:27;;;;;;;18.15;5.40;;;;;;;14.49;53.31;95220.47;5062758;28;20242;-80
2022/10/28 09:12:11;;;;;;;17.75;6.22;;;;;;;14.62;51.89;95212.41;5066641;28;20025;-78
2022/10/28 09:14:52;;;;;;;19.05;5.43;;;;;;;14.68;52.07;95207.69;5066222;28;20017;-87
2022/10/28 09:17:20;;;;;;;13.18;5.50;;;;;;;14.78;51.81;95218.19;5066564;28;20032;-87
2022/10/28 09:19:51;;;;;;;16.15;5.25;;;;;;;14.89;52.01;95213.34;5066229;28;20052;-86
2022/10/28 09:22:44;;;;;;;15.73;5.25;;;;;;;15.00;51.88;95208.50;5066751;28;20072;-92
2022/10/28 09:25:27;;;;;;;15.90;4.93;;;;;;;15.11;51.35;95195.63;5067482;28;20028;-92
2022/10/28 09:28:29;;;;;;;17.10;5.70;;;;;;;15.22;51.23;95195.06;5066480;28;20029;-92
2022/10/28 09:31:19;;;;;;;11.48;6.40;;;;;;;15.37;50.89;95193.84;5067169;28;20036;-91
2022/10/28 09:33:54;;;;;;;23.02;6.03;;;;;;;15.45;50.53;95187.72;5067249;28;20033;-91
2022/10/28 09:36:31;;;;;;;23.33;6.55;;;;;;;15.55;50.47;95193.88;5066045;28;20044;-92
2022/10/28 09:38:59;;;;;;;19.52;6.72;;;;;;;15.52;49.99;95186.47;5067101;28;20025;-93
2022/10/28 09:41:37;;;;;;;23.73;7.57;;;;;;;15.65;50.04;95182.84;5050339;28;20031;-92
2022/10/28 09:44:25;;;;;;;22.92;7.35;;;;;;;15.77;49.43;95172.34;5067500;28;20025;-92
2022/10/28 09:46:55;;;;;;;22.27;6.28;;;;;;;15.89;49.54;95168.22;5069063;28;20039;-92
2022/10/28 09:49:25;;;;;;;17.83;6.75;;;;;;;16.03;48.35;95171.56;5075942;28;20036;-92
2022/10/28 09:52:02;;;;;;;19.70;7.25;;;;;;;16.07;48.39;95161.75;5056072;28;20035;-92
2022/10/28 09:54:41;;;;;;;18.67;6.10;;;;;;;16.18;49.31;95154.97;5067494;28;20024;-92
2022/10/28 09:57:06;;;;;;;24.38;7.00;;;;;;;16.27;48.04;95148.81;5065273;28;20036;-92
2022/10/28 09:59:33;;;;;;;12.05;6.20;;;;;;;16.31;47.40;95147.84;5066604;28;20025;-92
2022/10/28 10:01:59;;;;;;;20.20;7.70;;;;;;;16.33;47.57;95152.91;5066712;28;20040;-93
2022/10/28 10:04:26;;;;;;;20.23;6.97;;;;;;;16.44;47.86;95154.97;5065764;28;20060;-92
2022/10/28 10:07:01;;;;;;;13.85;5.90;;;;;;;16.58;47.14;95152.06;5067410;28;20370;-92
2022/10/28 10:09:30;;;;;;;12.32;4.97;;;;;;;16.70;46.54;95148.72;5050817;28;20103;-93
2022/10/28 10:12:01;;;;;;;15.98;5.68;;;;;;;16.70;45.56;95143.34;5068133;28;20315;-92
2022/10/28 10:14:51;;;;;;;14.68;6.20;;;;;;;16.61;45.36;95146.06;5066994;28;20033;-92
2022/10/28 10:17:52;;;;;;;8.45;4.30;;;;;;;16.76;45.18;95146.66;5066375;28;20025;-93
2022/10/28 10:20:23;;;;;;;18.73;5.60;;;;;;;16.84;45.58;95137.81;5065971;28;20044;-92
2022/10/28 10:23:37;;;;;;;17.08;5.57;;;;;;;17.03;46.42;95134.72;5031107;28;20037;-93
2022/10/28 10:26:07;;;;;;;12.77;4.57;;;;;;;17.13;45.45;95131.66;5064872;28;20045;-85
2022/10/28 10:28:35;;;;;;;16.55;5.97;;;;;;;17.24;44.18;95124.03;5065026;28;20032;-84
2022/10/28 10:31:06;;;;;;;12.98;5.38;;;;;;;17.29;43.95;95123.84;5065085;28;20025;-85
2022/10/28 10:33:38;;;;;;;15.20;5.13;;;;;;;17.32;45.01;95120.50;5064904;28;20334;-83
2022/10/28 10:36:09;;;;;;;10.18;3.30;;;;;;;17.40;43.74;95126.94;5064913;28;20120;-86
2022/10/28 10:38:36;;;;;;;16.20;4.40;;;;;;;17.45;43.07;95130.25;5063524;28;20020;-84
2022/10/28 10:41:02;;;;;;;7.22;4.10;;;;;;;17.57;42.86;95120.69;5064592;28;20012;-83
2022/10/28 10:43:32;;;;;;;9.63;4.47;;;;;;;17.61;42.84;95113.53;5046730;28;20215;-88
2022/10/28 10:46:15;;;;;;;11.38;3.78;;;;;;;17.57;43.52;95104.53;5064641;28;20048;-85
2022/10/28 10:48:41;;;;;;;13.43;3.58;;;;;;;17.55;43.92;95114.84;5064730;28;20107;-85
2022/10/28 10:51:28;;;;;;;11.02;3.30;;;;;;;17.74;44.04;95109.00;5064638;28;20029;-87
2022/10/28 10:53:59;;;;;;;9.98;4.13;;;;;;;17.80;43.60;95113.84;5066598;28;20057;-85
2022/10/28 10:56:31;;;;;;;21.17;3.60;;;;;;;17.87;42.61;95096.41;5064590;28;20032;-83
2022/10/28 10:59:02;;;;;;;9.90;3.90;;;;;;;17.98;41.95;95097.59;5064971;28;20029;-85
2022/10/28 11:01:33;;;;;;;12.07;3.85;;;;;;;18.06;41.61;95099.44;5064824;28;20025;-87
2022/10/28 11:04:02;;;;;;;11.13;3.80;;;;;;;18.10;42.44;95103.03;5064879;28;20064;-91
2022/10/28 11:06:38;;;;;;;9.50;2.90;;;;;;;18.16;41.91;95090.94;5064576;28;20039;-88
2022/10/28 11:09:20;;;;;;;10.43;3.05;;;;;;;18.30;41.34;95090.66;5065049;28;20102;-94
2022/10/28 11:11:45;;;;;;;5.82;3.10;;;;;;;18.43;40.77;95091.47;5065896;28;20028;-86
2022/10/28 11:14:13;;;;;;;6.78;3.15;;;;;;;18.49;40.15;95092.06;5046567;28;20357;-88
2022/10/28 11:16:53;;;;;;;6.43;2.67;;;;;;;18.51;38.92;95087.13;5064218;28;20075;-85
2022/10/28 11:19:27;;;;;;;10.27;2.95;;;;;;;18.52;40.00;95088.69;5046898;28;20122;-85
2022/10/28 11:21:53;;;;;;;6.63;3.08;;;;;;;18.31;39.24;95086.03;5064122;28;20029;-86
2022/10/28 11:24:34;;;;;;;9.15;2.85;;;;;;;18.48;40.95;95083.19;5063673;28;20350;-85
2022/10/28 11:27:02;;;;;;;9.45;2.85;;;;;;;18.49;39.06;95078.56;5064335;28;20071;-85
2022/10/28 11:29:28;;;;;;;8.23;2.55;;;;;;;18.56;37.92;95079.59;5065429;28;20025;-90
2022/10/28 11:32:03;;;;;;;6.05;2.05;;;;;;;18.77;37.98;95078.75;5045938;28;20070;-83
2022/10/28 11:34:51;;;;;;;4.47;2.40;;;;;;;18.94;36.66;95062.34;5062407;28;20275;-87
2022/10/28 11:37:35;;;;;;;6.35;2.53;;;;;;;19.15;36.84;95072.25;5063684;28;20028;-87
2022/10/28 11:40:09;;;;;;;7.20;2.45;;;;;;;19.32;37.05;95074.75;5063943;28;20087;-86
2022/10/28 11:42:46;;;;;;;4.68;2.25;;;;;;;19.51;36.67;95066.03;5064029;28;20215;-87
2022/10/28 11:45:24;;;;;;;4.93;2.20;;;;;;;19.71;35.54;95071.69;5063565;28;20163;-87
2022/10/28 11:48:28;;;;;;;5.40;2.10;;;;;;;19.84;35.01;95065.91;5045690;28;20039;-81
2022/10/28 11:50:53;;;;;;;4.57;2.20;;;;;;;19.82;34.71;95049.22;5063340;28;20024;-82